createdAt,value
2018-11-22T00:07:02.111Z,60.80
2018-11-22T00:17:20.201Z,74.00
2018-11-22T00:27:38.121Z,62.73
2018-11-22T00:37:56.213Z,66.87
2018-11-22T00:48:14.128Z,56.57
2018-11-22T00:58:32.398Z,56.30
2018-11-22T01:08:50.652Z,47.67
2018-11-22T01:19:08.986Z,50.47
2018-11-22T01:29:27.402Z,54.10
2018-11-22T01:39:45.477Z,50.17
2018-11-22T01:50:03.192Z,46.53
2018-11-22T02:00:23.732Z,49.93
2018-11-22T02:10:41.561Z,51.63
2018-11-22T02:20:59.617Z,46.77
2018-11-22T02:31:18.318Z,46.07
2018-11-22T02:41:37.055Z,43.37
2018-11-22T02:51:55.997Z,38.00
2018-11-22T03:02:14.451Z,39.40
2018-11-22T03:12:32.608Z,37.27
2018-11-22T03:22:50.806Z,35.93
2018-11-22T03:33:08.979Z,35.10
2018-11-22T03:43:27.074Z,34.73
2018-11-22T03:53:45.202Z,38.97
2018-11-22T04:04:03.606Z,33.43
2018-11-22T04:14:22.082Z,36.33
2018-11-22T04:24:40.097Z,35.90
2018-11-22T04:34:57.988Z,35.50
2018-11-22T04:45:16.215Z,34.13
2018-11-22T04:55:34.342Z,31.17
2018-11-22T05:05:52.447Z,29.27
2018-11-22T05:16:10.528Z,31.30
2018-11-22T05:26:28.613Z,29.77
2018-11-22T05:36:46.836Z,29.53
2018-11-22T05:47:05.860Z,25.93
2018-11-22T05:57:26.031Z,24.03
2018-11-22T06:07:43.895Z,27.67
2018-11-22T06:18:02.473Z,32.60
2018-11-22T06:28:20.746Z,31.20
2018-11-22T06:38:38.819Z,30.63
2018-11-22T06:48:56.896Z,36.30
2018-11-22T06:59:14.963Z,30.97
2018-11-22T07:09:33.274Z,32.07
2018-11-22T07:19:51.311Z,33.03
2018-11-22T07:30:11.767Z,32.60
2018-11-22T07:40:31.101Z,34.80
2018-11-22T07:50:49.135Z,34.80
2018-11-22T08:01:07.512Z,33.13
2018-11-22T08:11:25.567Z,30.80
2018-11-22T08:21:43.722Z,28.60
2018-11-22T08:32:01.680Z,27.07
2018-11-22T08:42:20.159Z,26.57
2018-11-22T08:52:38.224Z,26.00
2018-11-22T09:02:56.486Z,26.63
2018-11-22T09:13:14.210Z,26.37
2018-11-22T09:23:35.493Z,24.93
2018-11-22T09:33:50.293Z,24.43
2018-11-22T09:44:09.666Z,24.77
2018-11-22T09:54:27.760Z,24.70
2018-11-22T10:04:45.630Z,27.03
2018-11-22T10:15:03.667Z,29.77
2018-11-22T10:25:21.750Z,30.93
2018-11-22T10:35:40.047Z,25.50
2018-11-22T10:45:58.112Z,25.10
2018-11-22T10:56:16.132Z,23.30
2018-11-22T11:06:51.796Z,32.17
2018-11-22T11:17:09.557Z,31.83
2018-11-22T11:27:27.835Z,27.77
2018-11-22T11:37:45.851Z,31.80
2018-11-22T11:48:03.691Z,30.93
2018-11-22T11:58:21.625Z,29.83
2018-11-22T12:08:39.764Z,31.93
2018-11-22T12:18:58.225Z,33.37
2018-11-22T12:29:16.246Z,30.73
2018-11-22T12:39:34.207Z,30.60
2018-11-22T12:49:52.321Z,32.53
2018-11-22T13:00:15.044Z,29.53
2018-11-22T13:10:32.811Z,31.33
2018-11-22T13:20:50.820Z,34.10
2018-11-22T13:31:09.108Z,31.77
2018-11-22T13:41:27.241Z,31.90
2018-11-22T13:51:45.132Z,35.80
2018-11-22T14:02:03.221Z,32.83
2018-11-22T14:12:21.487Z,36.80
2018-11-22T14:22:39.396Z,34.67
2018-11-22T14:32:57.351Z,36.40
2018-11-22T14:43:15.619Z,34.97
2018-11-22T14:53:33.651Z,36.10
2018-11-22T15:03:52.600Z,39.40
2018-11-22T15:14:10.314Z,38.53
2018-11-22T15:24:28.589Z,38.10
2018-11-22T15:34:47.218Z,39.40
2018-11-22T15:45:04.947Z,36.77
2018-11-22T15:55:23.433Z,37.83
2018-11-22T16:05:41.154Z,41.43
2018-11-22T16:15:59.212Z,38.80
2018-11-22T16:26:16.946Z,40.00
2018-11-22T16:36:35.501Z,40.27
2018-11-22T16:46:54.633Z,42.33
2018-11-22T16:57:12.668Z,90.80
2018-11-22T17:07:30.794Z,43.43
2018-11-22T17:17:48.954Z,37.87
2018-11-22T17:28:07.973Z,38.77
2018-11-22T17:38:25.935Z,44.47
2018-11-22T17:48:44.160Z,42.57
2018-11-22T17:59:02.642Z,38.13
2018-11-22T18:09:20.683Z,37.40
2018-11-22T18:19:39.154Z,37.70
2018-11-22T18:29:57.169Z,37.30
2018-11-22T18:40:17.130Z,40.23
2018-11-22T18:50:35.950Z,42.30
2018-11-22T19:00:53.654Z,41.83
2018-11-22T19:11:12.655Z,41.80
2018-11-22T19:21:30.352Z,73.27
2018-11-22T19:31:48.078Z,46.40
2018-11-22T19:42:06.453Z,37.07
2018-11-22T19:52:24.440Z,32.03
2018-11-22T20:02:43.269Z,35.80
2018-11-22T20:13:01.415Z,44.03
2018-11-22T20:23:21.918Z,48.73
2018-11-22T20:33:37.856Z,33.13
2018-11-22T20:43:55.891Z,35.40
2018-11-22T20:54:14.086Z,30.00
2018-11-22T21:04:32.443Z,28.53
2018-11-22T21:14:50.642Z,27.13
2018-11-22T21:25:11.026Z,28.70
2018-11-22T21:35:29.017Z,25.03
2018-11-22T21:45:46.766Z,25.20
2018-11-22T21:56:04.690Z,33.10
2018-11-22T22:06:23.111Z,21.70
2018-11-22T22:16:41.631Z,23.90
2018-11-22T22:26:59.855Z,19.07
2018-11-22T22:37:17.628Z,17.17
2018-11-22T22:47:36.876Z,19.90
2018-11-22T22:57:54.917Z,19.90
2018-11-22T23:08:12.849Z,17.47
2018-11-22T23:18:30.822Z,18.27
2018-11-22T23:28:49.206Z,18.73
2018-11-22T23:39:10.271Z,17.80
2018-11-22T23:49:28.643Z,16.87
2018-11-22T23:59:46.371Z,16.60
